Time;durP1;ratioP1;P1;durP2;ratioP2;P2;SDS_P1;SDS_P2;PMS_P1;PMS_P2;Temp;Humidity;BMP_temperature;BMP_pressure;BME280_temperature;BME280_humidity;BME280_pressure;Samples;Min_cycle;Max_cycle;Signal;HPM_P1;HPM_P2
2021/05/01 00:00:55;;;;;;;39.58;34.83;;;7.90;1.00;;;;;;4997297;28;20482;-71
2021/05/01 00:03:20;;;;;;;40.25;33.10;;;7.90;1.00;;;;;;5005195;28;20029;-71
2021/05/01 00:05:46;;;;;;;41.85;33.53;;;7.90;1.00;;;;;;5029760;28;20022;-71
2021/05/01 00:08:11;;;;;;;37.58;32.55;;;7.90;1.00;;;;;;5029186;28;20022;-72
2021/05/01 00:10:37;;;;;;;41.47;32.50;;;7.90;1.00;;;;;;5015421;28;20486;-72
2021/05/01 00:13:02;;;;;;;39.30;33.20;;;8.10;1.00;;;;;;5024346;28;20034;-69
2021/05/01 00:15:28;;;;;;;40.67;33.47;;;8.10;1.00;;;;;;5033038;28;20081;-71
2021/05/01 00:17:53;;;;;;;43.75;34.67;;;8.00;1.00;;;;;;5024378;28;20030;-70
2021/05/01 00:20:19;;;;;;;42.72;34.08;;;7.90;1.00;;;;;;5003426;28;20391;-70
2021/05/01 00:22:45;;;;;;;43.20;35.75;;;7.80;1.00;;;;;;5016957;28;20493;-69
2021/05/01 00:25:11;;;;;;;44.58;34.95;;;7.80;1.00;;;;;;5016640;28;20030;-70
2021/05/01 00:27:37;;;;;;;40.22;34.08;;;7.80;1.00;;;;;;5009814;28;20026;-70
2021/05/01 00:30:04;;;;;;;40.92;34.92;;;7.70;1.00;;;;;;5015324;28;20485;-70
2021/05/01 00:32:30;;;;;;;43.17;35.60;;;7.90;1.00;;;;;;5002361;28;20076;-69
2021/05/01 00:34:56;;;;;;;43.92;34.65;;;7.80;1.00;;;;;;5014931;28;20014;-70
2021/05/01 00:37:22;;;;;;;45.17;34.75;;;7.80;1.00;;;;;;5008552;28;20040;-70
2021/05/01 00:39:47;;;;;;;44.97;35.70;;;7.80;1.00;;;;;;5004398;28;20049;-70
2021/05/01 00:42:13;;;;;;;43.20;34.47;;;7.90;1.00;;;;;;5010518;28;20033;-70
2021/05/01 00:44:38;;;;;;;47.22;34.17;;;8.00;1.00;;;;;;4999705;28;20129;-72
2021/05/01 00:47:04;;;;;;;41.97;33.35;;;7.90;1.00;;;;;;5008535;28;20426;-70
2021/05/01 00:49:30;;;;;;;42.60;34.72;;;7.90;1.00;;;;;;5004531;28;20031;-69
2021/05/01 00:51:55;;;;;;;40.90;34.35;;;7.80;1.00;;;;;;5004679;28;20026;-69
2021/05/01 00:54:21;;;;;;;43.13;34.50;;;7.60;1.00;;;;;;5001801;28;20429;-70
2021/05/01 00:56:47;;;;;;;44.67;35.78;;;7.60;1.00;;;;;;4999592;28;20017;-71
2021/05/01 00:59:13;;;;;;;42.40;34.33;;;7.70;1.00;;;;;;5014301;28;20026;-70
2021/05/01 01:01:49;;;;;;;41.03;34.15;;;7.80;1.00;;;;;;5010628;28;20409;-71
2021/05/01 01:04:14;;;;;;;41.50;33.63;;;7.70;1.00;;;;;;5020822;28;20065;-69
2021/05/01 01:06:40;;;;;;;43.58;33.95;;;7.70;1.00;;;;;;5034942;28;20585;-69
2021/05/01 01:09:06;;;;;;;44.17;34.67;;;7.70;1.00;;;;;;5031389;28;20102;-73
2021/05/01 01:11:32;;;;;;;42.97;33.88;;;7.70;1.00;;;;;;5015021;28;20543;-71
2021/05/01 01:14:01;;;;;;;41.55;33.65;;;7.60;1.00;;;;;;5031448;28;20029;-70
2021/05/01 01:16:29;;;;;;;41.28;32.95;;;7.60;1.00;;;;;;5020824;28;20025;-69
2021/05/01 01:18:55;;;;;;;46.47;36.05;;;7.60;1.00;;;;;;5031223;28;20405;-69
2021/05/01 01:21:22;;;;;;;42.13;34.58;;;7.60;1.00;;;;;;5029359;28;20032;-72
2021/05/01 01:23:48;;;;;;;44.05;34.67;;;7.60;1.00;;;;;;5021146;28;20092;-71
2021/05/01 01:26:13;;;;;;;40.42;32.83;;;7.60;1.00;;;;;;5031592;28;20029;-71
2021/05/01 01:28:39;;;;;;;40.50;32.55;;;7.60;1.00;;;;;;5019679;28;20093;-70
2021/05/01 01:31:05;;;;;;;38.03;32.88;;;7.60;1.00;;;;;;5031815;28;20055;-69
2021/05/01 01:33:30;;;;;;;40.50;34.55;;;7.60;1.00;;;;;;5033654;28;20032;-71
2021/05/01 01:35:56;;;;;;;42.55;33.88;;;7.60;1.00;;;;;;5030945;28;20056;-72
2021/05/01 01:38:22;;;;;;;42.95;36.13;;;7.60;1.00;;;;;;5032726;28;20034;-72
2021/05/01 01:40:47;;;;;;;45.55;36.47;;;7.60;1.00;;;;;;5024593;28;20084;-71
2021/05/01 01:43:13;;;;;;;43.60;34.63;;;7.60;1.00;;;;;;5032770;28;20022;-71
2021/05/01 01:45:39;;;;;;;45.17;34.38;;;7.70;1.00;;;;;;5033655;28;20113;-71
2021/05/01 01:48:05;;;;;;;37.42;31.20;;;7.90;1.00;;;;;;5032377;28;20362;-70
2021/05/01 01:50:31;;;;;;;41.13;30.38;;;8.10;1.00;;;;;;5023932;28;20033;-72
2021/05/01 01:52:57;;;;;;;36.03;30.13;;;8.20;1.00;;;;;;5029479;28;20389;-71
2021/05/01 01:55:23;;;;;;;43.45;33.78;;;8.10;1.00;;;;;;5022102;28;20037;-71
2021/05/01 01:57:50;;;;;;;37.85;30.80;;;8.00;1.00;;;;;;5025536;28;20028;-71
2021/05/01 02:00:27;;;;;;;38.10;30.60;;;7.80;1.00;;;;;;5030275;28;20048;-71
2021/05/01 02:02:54;;;;;;;37.60;31.95;;;7.70;1.00;;;;;;5027609;28;20022;-71
2021/05/01 02:05:20;;;;;;;42.45;33.92;;;7.70;1.00;;;;;;5039191;28;20079;-70
2021/05/01 02:07:46;;;;;;;39.70;33.03;;;7.70;1.00;;;;;;5031679;28;20022;-71
2021/05/01 02:10:13;;;;;;;40.97;32.80;;;7.90;1.00;;;;;;5030783;28;20049;-72
2021/05/01 02:12:40;;;;;;;41.45;33.10;;;7.90;1.00;;;;;;5036750;28;20029;-71
2021/05/01 02:15:13;;;;;;;40.20;33.78;;;8.00;1.00;;;;;;5034960;28;20103;-72
2021/05/01 02:17:42;;;;;;;38.97;32.13;;;8.00;1.00;;;;;;5029070;28;20033;-72
2021/05/01 02:20:10;;;;;;;40.72;32.33;;;7.80;1.00;;;;;;5037679;28;20049;-72
2021/05/01 02:22:35;;;;;;;41.38;33.15;;;8.00;1.00;;;;;;5036967;28;20022;-72
2021/05/01 02:25:01;;;;;;;41.80;33.78;;;7.90;1.00;;;;;;5036670;28;20030;-71
2021/05/01 02:27:27;;;;;;;44.80;34.80;;;7.80;1.00;;;;;;5036678;28;20028;-72
2021/05/01 02:29:52;;;;;;;41.65;34.63;;;7.70;1.00;;;;;;5033908;28;20022;-72
2021/05/01 02:32:18;;;;;;;46.50;35.85;;;7.90;1.00;;;;;;5031541;28;20018;-70
2021/05/01 02:34:44;;;;;;;46.22;36.00;;;8.00;1.00;;;;;;5037505;28;20028;-72
2021/05/01 02:37:09;;;;;;;44.10;35.45;;;8.00;1.00;;;;;;5037846;28;20053;-70
2021/05/01 02:39:36;;;;;;;43.08;34.55;;;8.00;1.00;;;;;;5037456;28;20029;-71
2021/05/01 02:42:01;;;;;;;40.95;34.35;;;7.90;1.00;;;;;;5038108;28;20025;-71
2021/05/01 02:44:27;;;;;;;47.88;37.08;;;7.90;1.00;;;;;;5034935;28;20543;-71
2021/05/01 02:46:53;;;;;;;49.65;36.75;;;7.80;1.00;;;;;;5039568;28;20455;-73
2021/05/01 02:49:19;;;;;;;47.22;36.50;;;7.70;1.00;;;;;;5038094;28;20079;-72
2021/05/01 02:51:44;;;;;;;44.95;35.78;;;7.60;1.00;;;;;;5031466;28;20021;-71
2021/05/01 02:54:10;;;;;;;47.60;38.13;;;7.60;1.00;;;;;;5038240;28;20099;-71
2021/05/01 02:56:36;;;;;;;45.03;37.90;;;7.50;1.00;;;;;;5019628;28;20028;-70
2021/05/01 02:59:01;;;;;;;48.42;38.78;;;7.50;1.00;;;;;;5029876;28;20030;-71
2021/05/01 03:01:27;;;;;;;51.40;39.05;;;7.40;1.00;;;;;;5035858;28;20040;-71
2021/05/01 03:03:53;;;;;;;46.47;37.42;;;7.40;1.00;;;;;;5031403;28;20026;-72
2021/05/01 03:06:18;;;;;;;48.30;39.25;;;7.50;1.00;;;;;;5033152;28;20022;-71
2021/05/01 03:08:44;;;;;;;46.47;37.70;;;7.40;1.00;;;;;;5035244;28;20064;-71
2021/05/01 03:11:09;;;;;;;49.17;38.47;;;7.40;1.00;;;;;;5030915;28;20032;-70
2021/05/01 03:13:36;;;;;;;47.30;36.85;;;7.50;1.00;;;;;;5029547;28;20378;-70
2021/05/01 03:16:01;;;;;;;47.38;36.80;;;7.60;1.00;;;;;;5035618;28;20096;-72
2021/05/01 03:18:27;;;;;;;47.20;36.50;;;7.40;1.00;;;;;;5028762;28;20572;-72
2021/05/01 03:20:53;;;;;;;50.33;37.53;;;7.50;1.00;;;;;;5037278;28;20045;-73
2021/05/01 03:23:20;;;;;;;48.50;38.55;;;7.50;1.00;;;;;;5036604;28;20030;-70
2021/05/01 03:25:46;;;;;;;49.75;40.60;;;7.40;1.00;;;;;;5034102;28;20025;-70
2021/05/01 03:28:12;;;;;;;54.20;40.35;;;7.20;1.00;;;;;;5041484;28;20112;-71
2021/05/01 03:30:37;;;;;;;52.67;40.92;;;7.20;1.00;;;;;;5037710;28;20029;-72
2021/05/01 03:33:03;;;;;;;55.92;42.25;;;7.10;1.00;;;;;;5038076;28;20076;-72
2021/05/01 03:35:29;;;;;;;59.13;40.63;;;7.10;1.00;;;;;;5037382;28;20443;-69
2021/05/01 03:37:54;;;;;;;55.55;39.72;;;7.20;1.00;;;;;;5040117;28;20029;-71
2021/05/01 03:40:21;;;;;;;57.40;41.03;;;7.30;1.00;;;;;;5037972;28;20030;-73
2021/05/01 03:42:48;;;;;;;55.25;41.50;;;7.30;1.00;;;;;;5034600;28;20371;-73
2021/05/01 03:45:14;;;;;;;55.58;40.75;;;7.20;1.00;;;;;;5034547;28;20022;-72
2021/05/01 03:47:40;;;;;;;54.90;42.13;;;7.10;1.00;;;;;;5038158;28;20034;-71
2021/05/01 03:50:07;;;;;;;57.72;42.70;;;7.00;1.00;;;;;;5031092;28;20113;-72
2021/05/01 03:52:34;;;;;;;58.75;43.70;;;7.00;1.00;;;;;;5029480;28;20033;-70
2021/05/01 03:55:00;;;;;;;64.28;44.42;;;6.90;1.00;;;;;;5045924;28;20018;-72
2021/05/01 03:57:26;;;;;;;61.10;43.17;;;6.90;1.00;;;;;;5046332;28;20044;-71
2021/05/01 03:59:52;;;;;;;62.58;43.10;;;6.90;1.00;;;;;;5034029;28;20026;-71
2021/05/01 04:02:18;;;;;;;57.17;43.22;;;6.90;1.00;;;;;;5048843;28;20032;-69
2021/05/01 04:04:44;;;;;;;55.25;40.55;;;7.10;1.00;;;;;;5044147;28;20034;-70
2021/05/01 04:07:10;;;;;;;56.38;42.20;;;7.20;1.00;;;;;;5038681;28;20477;-72
2021/05/01 04:09:35;;;;;;;55.97;43.13;;;7.10;1.00;;;;;;5032152;28;20026;-71
2021/05/01 04:12:01;;;;;;;58.00;43.30;;;7.00;1.00;;;;;;5028640;28;20029;-70
2021/05/01 04:14:26;;;;;;;59.80;43.35;;;7.00;1.00;;;;;;5033831;28;20025;-72
2021/05/01 04:16:52;;;;;;;63.45;44.85;;;7.00;1.00;;;;;;5027945;28;20025;-71
2021/05/01 04:19:17;;;;;;;58.95;43.13;;;7.00;1.00;;;;;;5035061;28;20388;-71
2021/05/01 04:21:43;;;;;;;57.83;41.17;;;6.90;1.00;;;;;;5022685;28;20396;-71
2021/05/01 04:24:09;;;;;;;55.88;41.10;;;7.10;1.00;;;;;;5027313;28;20029;-71
2021/05/01 04:26:36;;;;;;;57.17;41.65;;;7.20;1.00;;;;;;5033425;28;20400;-72
2021/05/01 04:29:01;;;;;;;59.60;41.08;;;7.30;1.00;;;;;;5029643;28;20017;-71
2021/05/01 04:31:28;;;;;;;59.30;39.63;;;7.30;1.00;;;;;;5032475;28;20151;-71
2021/05/01 04:33:54;;;;;;;55.97;41.72;;;7.30;1.00;;;;;;5024221;28;20026;-71
2021/05/01 04:36:19;;;;;;;55.58;41.47;;;7.50;1.00;;;;;;5034600;28;20521;-71
2021/05/01 04:38:45;;;;;;;55.80;40.45;;;7.50;1.00;;;;;;5030985;28;20456;-70
2021/05/01 04:41:11;;;;;;;53.30;40.10;;;7.60;1.00;;;;;;5033076;28;20048;-72
2021/05/01 04:43:39;;;;;;;58.75;41.65;;;7.60;1.00;;;;;;5032377;28;20076;-71
2021/05/01 04:46:04;;;;;;;58.10;41.22;;;7.50;1.00;;;;;;5026884;28;20026;-72
2021/05/01 04:48:30;;;;;;;52.05;40.17;;;7.60;1.00;;;;;;5031599;28;20037;-69
2021/05/01 04:50:56;;;;;;;54.85;40.65;;;7.60;1.00;;;;;;5029568;28;20079;-70
2021/05/01 04:53:22;;;;;;;53.15;40.42;;;7.60;1.00;;;;;;5024200;28;20029;-70
2021/05/01 04:55:48;;;;;;;58.88;40.38;;;7.50;1.00;;;;;;5029907;28;20485;-70
2021/05/01 04:58:14;;;;;;;54.05;39.70;;;7.60;1.00;;;;;;5027371;28;20025;-70
2021/05/01 05:00:40;;;;;;;54.05;38.38;;;7.90;1.00;;;;;;5042344;28;20021;-70
2021/05/01 05:03:06;;;;;;;57.47;40.38;;;8.10;1.00;;;;;;5039322;28;20056;-73
2021/05/01 05:05:31;;;;;;;50.55;38.45;;;8.30;1.00;;;;;;5035483;28;20013;-71
2021/05/01 05:07:57;;;;;;;51.53;37.70;;;8.30;1.00;;;;;;5027676;28;20025;-70
2021/05/01 05:10:23;;;;;;;51.40;38.97;;;8.20;1.00;;;;;;5027548;28;20151;-70
2021/05/01 05:12:48;;;;;;;49.70;37.80;;;8.30;1.00;;;;;;5032669;28;20018;-70
2021/05/01 05:15:15;;;;;;;47.92;35.53;;;8.40;1.00;;;;;;5035632;28;20025;-71
2021/05/01 05:17:41;;;;;;;51.83;38.80;;;8.50;1.00;;;;;;5034862;28;20028;-72
2021/05/01 05:20:08;;;;;;;45.50;35.38;;;8.50;1.00;;;;;;5032382;28;20459;-72
2021/05/01 05:22:34;;;;;;;48.83;37.30;;;8.50;1.00;;;;;;5030917;28;20080;-71
2021/05/01 05:25:00;;;;;;;50.47;37.55;;;8.50;1.00;;;;;;5024109;28;20025;-72
2021/05/01 05:27:26;;;;;;;52.20;39.13;;;8.40;1.00;;;;;;5024119;28;20018;-70
2021/05/01 05:29:52;;;;;;;50.03;39.15;;;8.30;1.00;;;;;;5012369;28;20025;-71
2021/05/01 05:32:19;;;;;;;50.17;37.33;;;8.20;1.00;;;;;;5025523;28;20050;-71
2021/05/01 05:34:44;;;;;;;52.92;37.80;;;8.20;1.00;;;;;;5032712;28;20528;-71
2021/05/01 05:37:10;;;;;;;57.80;40.53;;;7.90;1.00;;;;;;5032661;28;20086;-71
2021/05/01 05:39:36;;;;;;;52.58;38.08;;;8.00;1.00;;;;;;5028813;28;20444;-71
2021/05/01 05:42:02;;;;;;;47.83;34.65;;;8.10;1.00;;;;;;5032106;28;20100;-70
2021/05/01 05:44:29;;;;;;;47.95;34.70;;;8.40;1.00;;;;;;5028143;28;20051;-71
2021/05/01 05:46:55;;;;;;;45.88;34.40;;;8.60;1.00;;;;;;5026466;28;20105;-71
2021/05/01 05:49:20;;;;;;;48.78;34.88;;;8.80;1.00;;;;;;5022288;28;20117;-72
2021/05/01 05:51:46;;;;;;;46.38;34.83;;;8.50;1.00;;;;;;5013847;28;20084;-73
2021/05/01 05:54:11;;;;;;;43.67;32.85;;;8.70;1.00;;;;;;5018651;28;20025;-72
2021/05/01 05:56:38;;;;;;;40.55;31.63;;;9.10;1.00;;;;;;5032995;28;20037;-71
2021/05/01 05:59:03;;;;;;;41.58;31.67;;;9.10;1.00;;;;;;5025548;28;20120;-72
2021/05/01 06:01:31;;;;;;;49.30;34.90;;;9.00;1.00;;;;;;5028863;28;20104;-72
2021/05/01 06:03:59;;;;;;;38.25;30.63;;;8.80;1.00;;;;;;5025116;28;20033;-71
2021/05/01 06:06:33;;;;;;;39.38;31.05;;;8.80;1.00;;;;;;5033693;28;20498;-71
2021/05/01 06:08:58;;;;;;;38.58;31.83;;;9.00;1.00;;;;;;5033228;28;20080;-72
2021/05/01 06:11:25;;;;;;;43.25;33.40;;;9.00;1.00;;;;;;5032590;28;20030;-72
2021/05/01 06:13:51;;;;;;;43.58;32.83;;;8.80;1.00;;;;;;5028340;28;20025;-72
2021/05/01 06:16:20;;;;;;;38.08;31.02;;;8.90;1.00;;;;;;5013295;28;20033;-71
2021/05/01 06:18:47;;;;;;;37.83;30.17;;;9.30;1.00;;;;;;5029249;28;20061;-71
2021/05/01 06:21:13;;;;;;;40.72;32.88;;;9.60;1.00;;;;;;5030603;28;20029;-71
2021/05/01 06:23:40;;;;;;;40.03;32.83;;;9.60;1.00;;;;;;5030242;28;20045;-72
2021/05/01 06:26:06;;;;;;;39.28;31.70;;;9.70;99.90;;;;;;5027116;28;20449;-72
2021/05/01 06:28:34;;;;;;;42.03;31.27;;;9.90;99.90;;;;;;5026668;28;20056;-73
2021/05/01 06:31:01;;;;;;;39.03;30.95;;;10.10;99.90;;;;;;5036181;28;20515;-71
2021/05/01 06:33:27;;;;;;;36.85;29.48;;;10.20;99.90;;;;;;5031633;28;20052;-72
2021/05/01 06:35:53;;;;;;;39.67;30.73;;;10.20;99.90;;;;;;5032125;28;20366;-72
2021/05/01 06:38:18;;;;;;;39.25;30.58;;;10.20;99.90;;;;;;5024184;28;20027;-72
2021/05/01 06:40:47;;;;;;;37.38;28.85;;;10.10;99.90;;;;;;5025251;28;20032;-72
2021/05/01 06:43:58;;;;;;;39.40;30.35;;;10.20;99.90;;;;;;5025659;28;20022;-72
2021/05/01 06:46:26;;;;;;;39.40;30.60;;;10.60;99.90;;;;;;5014370;28;20370;-71
2021/05/01 06:48:54;;;;;;;37.25;30.88;;;10.50;99.90;;;;;;5031009;28;20026;-71
2021/05/01 06:51:20;;;;;;;39.80;30.02;;;10.70;99.90;;;;;;5017997;28;20036;-71
2021/05/01 06:53:46;;;;;;;36.05;30.23;;;10.70;99.90;;;;;;5017047;28;20029;-71
2021/05/01 06:56:13;;;;;;;35.53;28.90;;;10.90;99.90;;;;;;5028588;28;20025;-70
2021/05/01 06:58:41;;;;;;;36.30;30.58;;;10.60;99.90;;;;;;5027525;28;20033;-71
2021/05/01 07:01:11;;;;;;;30.75;26.58;;;10.30;99.90;;;;;;5034740;28;20492;-70
2021/05/01 07:03:45;;;;;;;28.40;23.38;;;10.70;99.90;;;;;;5032778;28;20032;-71
2021/05/01 07:06:18;;;;;;;29.20;24.33;;;11.00;99.90;;;;;;5032006;28;20013;-70
2021/05/01 07:08:44;;;;;;;26.77;23.13;;;10.90;99.90;;;;;;5028194;28;20034;-72
2021/05/01 07:11:12;;;;;;;26.95;24.05;;;11.00;99.90;;;;;;5037182;28;20029;-72
2021/05/01 07:13:39;;;;;;;34.47;26.65;;;10.80;99.90;;;;;;5036265;28;20370;-72
2021/05/01 07:16:09;;;;;;;27.48;23.45;;;10.70;99.90;;;;;;5030616;28;20041;-73
2021/05/01 07:18:38;;;;;;;28.80;23.55;;;10.90;99.90;;;;;;5027883;28;20037;-73
2021/05/01 07:21:03;;;;;;;27.13;23.50;;;10.60;99.90;;;;;;5037090;28;20049;-71
2021/05/01 07:23:29;;;;;;;26.83;22.25;;;10.60;99.90;;;;;;5034531;28;20358;-72
2021/05/01 07:25:54;;;;;;;23.08;20.42;;;10.60;99.90;;;;;;5036996;28;20017;-72
2021/05/01 07:28:24;;;;;;;24.77;21.70;;;10.40;99.90;;;;;;5034173;28;20045;-72
2021/05/01 07:30:53;;;;;;;23.58;21.00;;;10.30;99.90;;;;;;5036493;28;20095;-71
2021/05/01 07:33:32;;;;;;;29.02;22.15;;;10.40;99.90;;;;;;5036255;28;20021;-71
2021/05/01 07:36:10;;;;;;;25.50;20.98;;;10.60;99.90;;;;;;5031275;28;20093;-72
2021/05/01 07:38:36;;;;;;;26.90;21.85;;;10.50;99.90;;;;;;5027915;28;20034;-70
2021/05/01 07:41:03;;;;;;;24.35;21.40;;;10.30;99.90;;;;;;5039091;28;20060;-70
2021/05/01 07:43:30;;;;;;;21.42;19.10;;;10.30;99.90;;;;;;5036889;28;20109;-71
2021/05/01 07:45:58;;;;;;;24.23;21.33;;;9.70;99.90;;;;;;5047720;28;20021;-71
2021/05/01 07:48:27;;;;;;;28.83;23.92;;;9.60;99.90;;;;;;5044478;28;20010;-70
2021/05/01 07:50:54;;;;;;;27.80;24.30;;;9.50;99.90;;;;;;5033863;28;20093;-72
2021/05/01 07:53:20;;;;;;;27.70;22.67;;;10.00;99.90;;;;;;5047454;28;20030;-70
2021/05/01 07:55:45;;;;;;;25.25;22.58;;;10.30;99.90;;;;;;5055602;28;20044;-70
2021/05/01 07:58:11;;;;;;;24.88;22.00;;;10.30;99.90;;;;;;5042518;28;20018;-71
2021/05/01 08:00:37;;;;;;;28.67;22.15;;;10.30;99.90;;;;;;5033253;28;20829;-72
2021/05/01 08:03:03;;;;;;;26.17;22.08;;;10.20;99.90;;;;;;5030353;28;20029;-71
2021/05/01 08:05:29;;;;;;;25.80;23.00;;;10.30;99.90;;;;;;5028717;28;20048;-72
2021/05/01 08:07:56;;;;;;;23.95;21.35;;;10.50;99.90;;;;;;5031843;28;20480;-72
2021/05/01 08:10:22;;;;;;;23.70;21.13;;;10.20;99.90;;;;;;5030815;28;20108;-72
2021/05/01 08:12:47;;;;;;;22.27;19.65;;;9.90;99.90;;;;;;5031056;28;20109;-71
2021/05/01 08:15:13;;;;;;;21.45;19.23;;;9.80;99.90;;;;;;5029935;28;20381;-72
2021/05/01 08:17:41;;;;;;;23.25;20.85;;;9.70;99.90;;;;;;5034685;28;20374;-72
2021/05/01 08:20:11;;;;;;;23.63;21.10;;;9.90;99.90;;;;;;5032891;28;20017;-71
2021/05/01 08:22:38;;;;;;;24.52;22.00;;;10.20;99.90;;;;;;5032859;28;20034;-72
2021/05/01 08:25:06;;;;;;;24.05;21.42;;;10.50;99.90;;;;;;5019816;28;20112;-72
2021/05/01 08:27:32;;;;;;;28.35;22.35;;;10.60;99.90;;;;;;5034212;28;20018;-72
2021/05/01 08:29:58;;;;;;;24.02;21.02;;;10.70;99.90;;;;;;5029900;28;20071;-73
2021/05/01 08:32:23;;;;;;;25.63;22.20;;;10.40;99.90;;;;;;5032093;28;20370;-71
2021/05/01 08:34:49;;;;;;;27.85;23.65;;;10.60;99.90;;;;;;5027823;28;20488;-73
2021/05/01 08:37:14;;;;;;;24.00;21.50;;;10.60;99.90;;;;;;5035112;28;20081;-73
2021/05/01 08:39:40;;;;;;;26.67;22.27;;;10.70;99.90;;;;;;5027460;28;20118;-72
2021/05/01 08:42:06;;;;;;;26.45;23.08;;;10.60;99.90;;;;;;5033808;28;20109;-72
2021/05/01 08:44:32;;;;;;;22.92;20.52;;;10.40;99.90;;;;;;5033144;28;20393;-71
2021/05/01 08:46:59;;;;;;;22.98;20.38;;;10.60;99.90;;;;;;5034802;28;20092;-71
2021/05/01 08:49:24;;;;;;;25.38;21.25;;;10.40;99.90;;;;;;5031881;28;20492;-72
2021/05/01 08:51:50;;;;;;;24.17;21.35;;;9.90;99.90;;;;;;5017258;28;20057;-72
2021/05/01 08:54:16;;;;;;;25.75;22.63;;;9.80;99.90;;;;;;5030263;28;20026;-71
2021/05/01 08:56:42;;;;;;;23.55;21.02;;;10.10;99.90;;;;;;5031920;28;20036;-72
2021/05/01 08:59:08;;;;;;;23.45;20.63;;;10.20;99.90;;;;;;5033987;28;20029;-72
2021/05/01 09:01:37;;;;;;;24.40;21.55;;;10.50;99.90;;;;;;5031472;28;20396;-72
2021/05/01 09:04:08;;;;;;;24.75;20.08;;;10.50;99.90;;;;;;5032204;28;20040;-71
2021/05/01 09:06:35;;;;;;;27.67;23.15;;;10.30;99.90;;;;;;5025607;28;20401;-71
2021/05/01 09:09:09;;;;;;;23.92;21.42;;;10.60;99.90;;;;;;5025503;28;20384;-72
2021/05/01 09:11:46;;;;;;;24.05;20.65;;;10.90;99.90;;;;;;5032481;28;20040;-71
2021/05/01 09:14:23;;;;;;;24.58;21.98;;;10.70;99.90;;;;;;5034300;28;20030;-71
2021/05/01 09:16:58;;;;;;;23.63;20.40;;;10.60;99.90;;;;;;5034011;28;20035;-71
2021/05/01 09:19:32;;;;;;;24.25;20.92;;;11.20;99.90;;;;;;5035215;28;20565;-72
2021/05/01 09:22:07;;;;;;;22.63;20.30;;;11.50;99.90;;;;;;5038023;28;20557;-72
2021/05/01 09:24:34;;;;;;;23.92;20.83;;;11.60;99.90;;;;;;5017049;28;20057;-71
2021/05/01 09:27:00;;;;;;;23.20;20.40;;;11.20;99.90;;;;;;5030376;28;20017;-71
2021/05/01 09:29:33;;;;;;;24.05;21.48;;;11.20;99.90;;;;;;5038001;28;20018;-70
2021/05/01 09:32:01;;;;;;;22.63;20.25;;;11.00;99.90;;;;;;5042123;28;20013;-71
2021/05/01 09:34:48;;;;;;;23.45;21.00;;;11.00;99.90;;;;;;5036185;28;20088;-70
2021/05/01 09:37:15;;;;;;;26.70;18.83;;;10.70;99.90;;;;;;5029776;28;20112;-71
2021/05/01 09:39:56;;;;;;;23.33;20.50;;;11.10;99.90;;;;;;5031257;28;20029;-72
2021/05/01 09:42:23;;;;;;;22.23;19.98;;;11.50;76.50;;;;;;5032801;28;20036;-72
2021/05/01 09:45:04;;;;;;;23.20;20.85;;;11.50;17.70;;;;;;5030396;28;20040;-72
2021/05/01 09:47:30;;;;;;;21.92;19.58;;;11.60;41.20;;;;;;5029333;28;20026;-72
2021/05/01 09:49:55;;;;;;;22.42;19.67;;;12.00;1.00;;;;;;5025334;28;20045;-71
2021/05/01 09:52:22;;;;;;;21.10;18.95;;;12.00;1.00;;;;;;5031221;28;20029;-71
2021/05/01 09:54:47;;;;;;;22.80;20.40;;;12.40;1.00;;;;;;5033718;28;20025;-71
2021/05/01 09:57:16;;;;;;;23.77;20.40;;;12.20;1.00;;;;;;5032273;28;20029;-72
2021/05/01 09:59:55;;;;;;;22.88;20.45;;;11.50;4.40;;;;;;5033725;28;20139;-72
2021/05/01 10:02:33;;;;;;;21.92;18.45;;;11.40;99.90;;;;;;5032295;28;20152;-73
2021/05/01 10:05:05;;;;;;;25.02;21.60;;;11.60;68.50;;;;;;5032717;28;20032;-72
2021/05/01 10:07:33;;;;;;;21.42;18.98;;;12.00;6.20;;;;;;5028996;28;20434;-71
2021/05/01 10:09:59;;;;;;;23.17;20.33;;;12.20;1.00;;;;;;5035029;28;20389;-71
2021/05/01 10:12:38;;;;;;;24.98;20.83;;;12.20;1.00;;;;;;5023303;28;20018;-72
2021/05/01 10:15:13;;;;;;;24.38;20.45;;;12.30;1.00;;;;;;5027672;28;20030;-72
2021/05/01 10:17:38;;;;;;;22.75;20.05;;;12.50;1.00;;;;;;5021561;28;20041;-70
2021/05/01 10:20:06;;;;;;;24.10;20.35;;;12.60;1.00;;;;;;5026642;28;20044;-71
2021/05/01 10:22:42;;;;;;;24.55;21.67;;;12.70;99.90;;;;;;5029891;28;20066;-71
2021/05/01 10:25:19;;;;;;;25.77;23.00;;;12.80;99.90;;;;;;5019424;28;20091;-69
2021/05/01 10:27:54;;;;;;;23.92;21.40;;;12.40;1.00;;;;;;5027391;28;20148;-71
2021/05/01 10:32:58;;;;;;;27.70;20.55;;;12.40;1.00;;;;;;5025078;28;20175;-71
2021/05/01 10:35:29;;;;;;;23.80;21.20;;;12.50;1.00;;;;;;5019984;28;20018;-71
2021/05/01 10:37:57;;;;;;;24.45;21.50;;;12.50;1.00;;;;;;5023028;28;20116;-70
2021/05/01 10:40:25;;;;;;;25.13;20.75;;;12.10;1.00;;;;;;5027757;28;20544;-72
2021/05/01 10:43:16;;;;;;;25.95;20.55;;;12.60;1.00;;;;;;5017339;28;20041;-72
2021/05/01 10:45:49;;;;;;;27.38;22.98;;;13.20;99.90;;;;;;5026757;28;20029;-70
2021/05/01 10:48:16;;;;;;;26.63;23.48;;;13.20;99.90;;;;;;5023235;28;20029;-73
2021/05/01 10:50:42;;;;;;;26.73;23.75;;;12.80;1.00;;;;;;5026982;28;20108;-72
2021/05/01 10:53:18;;;;;;;26.25;23.45;;;12.90;1.00;;;;;;5023295;28;20056;-72
2021/05/01 10:55:46;;;;;;;28.58;23.23;;;12.40;1.00;;;;;;5021053;28;20025;-71
2021/05/01 10:58:12;;;;;;;27.80;23.92;;;11.90;57.00;;;;;;5027587;28;20041;-72
2021/05/01 11:00:44;;;;;;;26.17;23.33;;;11.40;99.90;;;;;;5021809;28;20013;-72
2021/05/01 11:03:14;;;;;;;27.17;24.33;;;12.00;99.90;;;;;;5021605;28;20032;-72
2021/05/01 11:05:42;;;;;;;27.00;23.92;;;11.70;99.90;;;;;;5028946;28;20013;-71
2021/05/01 11:08:20;;;;;;;30.58;25.48;;;11.50;99.90;;;;;;5027781;28;20018;-72
2021/05/01 11:10:47;;;;;;;26.15;23.33;;;11.50;99.90;;;;;;5029079;28;20026;-71
2021/05/01 11:13:22;;;;;;;25.90;23.20;;;11.80;99.90;;;;;;5031668;28;20033;-72
2021/05/01 11:15:51;;;;;;;27.70;24.70;;;11.90;99.90;;;;;;5028283;28;20029;-72
2021/05/01 11:18:20;;;;;;;27.58;24.15;;;11.50;99.90;;;;;;5027229;28;20024;-71
2021/05/01 11:20:47;;;;;;;27.17;23.38;;;11.60;99.90;;;;;;5027592;28;20394;-72
2021/05/01 11:23:14;;;;;;;25.17;22.48;;;12.00;99.90;;;;;;5023044;28;20029;-72
2021/05/01 11:25:41;;;;;;;28.65;25.55;;;12.10;87.10;;;;;;5032075;28;20033;-72
2021/05/01 11:28:11;;;;;;;29.30;24.02;;;11.90;99.90;;;;;;5029073;28;20096;-75
2021/05/01 11:30:38;;;;;;;27.83;24.65;;;11.80;99.90;;;;;;5034947;28;20017;-72
2021/05/01 11:33:04;;;;;;;27.48;24.23;;;11.50;99.90;;;;;;5030085;28;20056;-71
2021/05/01 11:35:31;;;;;;;27.27;24.08;;;11.50;99.90;;;;;;5033622;28;20025;-72
2021/05/01 11:38:02;;;;;;;27.65;24.45;;;11.40;99.90;;;;;;5031870;28;20014;-72
2021/05/01 11:40:30;;;;;;;30.20;25.77;;;11.40;99.90;;;;;;5025843;28;20592;-72
2021/05/01 11:42:57;;;;;;;26.88;24.00;;;11.40;99.90;;;;;;5030492;28;20022;-72
2021/05/01 11:45:38;;;;;;;27.40;24.50;;;11.60;99.90;;;;;;5024759;28;20026;-70
2021/05/01 11:48:07;;;;;;;28.52;25.08;;;11.80;99.90;;;;;;5035270;28;20033;-73
2021/05/01 11:50:35;;;;;;;28.50;24.65;;;12.10;99.90;;;;;;5030317;28;20037;-71
2021/05/01 11:53:25;;;;;;;29.70;26.15;;;11.80;99.90;;;;;;5033892;28;20104;-71
2021/05/01 11:56:24;;;;;;;29.20;25.03;;;11.90;99.90;;;;;;5015085;28;20022;-72
2021/05/01 11:58:50;;;;;;;27.25;23.73;;;11.70;99.90;;;;;;5018228;28;20017;-71
2021/05/01 12:01:22;;;;;;;29.90;24.75;;;12.00;99.90;;;;;;5027110;28;20060;-71
2021/05/01 12:03:57;;;;;;;26.77;23.67;;;12.50;99.90;;;;;;5026646;28;20465;-73
2021/05/01 12:06:28;;;;;;;29.20;25.30;;;12.40;87.40;;;;;;5026994;28;20072;-70
2021/05/01 12:08:57;;;;;;;28.10;24.52;;;12.20;99.90;;;;;;5029655;28;20045;-72
2021/05/01 12:11:24;;;;;;;29.85;23.92;;;11.90;99.90;;;;;;5023739;28;20052;-72
2021/05/01 12:13:52;;;;;;;29.38;24.63;;;12.30;99.90;;;;;;5021703;28;20061;-70
2021/05/01 12:16:20;;;;;;;27.10;23.63;;;12.30;91.20;;;;;;5029089;28;20112;-70
2021/05/01 12:18:49;;;;;;;27.52;24.08;;;12.30;91.10;;;;;;5035248;28;20021;-73
2021/05/01 12:21:28;;;;;;;25.63;22.85;;;11.80;99.90;;;;;;5020904;28;20030;-74
2021/05/01 12:24:02;;;;;;;30.98;26.15;;;12.00;99.90;;;;;;5031132;28;20108;-73
2021/05/01 12:26:38;;;;;;;28.85;24.40;;;12.00;99.90;;;;;;5018868;28;20022;-71
2021/05/01 12:29:19;;;;;;;25.80;22.55;;;12.20;99.90;;;;;;5032154;28;20482;-70
2021/05/01 12:32:08;;;;;;;27.63;23.88;;;12.20;99.90;;;;;;5038711;28;20419;-79
2021/05/01 12:34:46;;;;;;;29.27;24.02;;;11.70;99.90;;;;;;5053169;28;20045;-81
2021/05/01 12:37:13;;;;;;;27.45;24.13;;;11.60;99.90;;;;;;5031609;28;20018;-73
2021/05/01 12:39:40;;;;;;;30.85;25.60;;;11.50;99.90;;;;;;5027124;28;20021;-71
2021/05/01 12:42:34;;;;;;;27.98;24.15;;;11.70;99.90;;;;;;5026015;28;20018;-70
2021/05/01 12:45:02;;;;;;;26.70;23.85;;;11.80;99.90;;;;;;5029518;28;20049;-70